KGCY/GCY METAR and TAF weather

Enter ICAO airport designator
Station Type Date Time Source
KGCY METAR 2020/09/21 06:55 UTC NOAA

KGCY 210655Z AUTO 00000KT 10SM CLR 08/05 A3040 RMK A01


Station Type Date Time Source
KGCY Decoded METAR 2020/09/21 06:55 UTC NOAA

Station name not available
Sep 21, 2020 - 02:55 AM EDT / 2020.09.21 0655 UTC
Wind: Calm:0
Visibility: 10 mile(s):0
Sky conditions: clear
Temperature: 46 F (8 C)
Dew Point: 41 F (5 C)
Relative Humidity: 81%
Pressure (altimeter): 30.4 in. Hg (1029 hPa)
ob: KGCY 210655Z AUTO 00000KT 10SM CLR 08/05 A3040 RMK A01
cycle: 7

Station Type Date Time Source
KGCY TAF UTC NOAA

Error!

Example: see airport list